sensor_id;sensor_type;location;lat;lon;timestamp;P1;durP1;ratioP1;P2;durP2;ratioP2
50631;SDS011;49583;45.590;-122.498;2023-10-19T00:01:42;2.40;;;1.40;;
50631;SDS011;49583;45.590;-122.498;2023-10-19T00:03:59;4.70;;;1.60;;
50631;SDS011;49583;45.590;-122.498;2023-10-19T00:06:17;4.60;;;1.30;;
50631;SDS011;49583;45.590;-122.498;2023-10-19T00:08:31;11.40;;;2.30;;
50631;SDS011;49583;45.590;-122.498;2023-10-19T00:10:58;8.60;;;1.70;;
50631;SDS011;49583;45.590;-122.498;2023-10-19T00:13:36;8.00;;;1.90;;
50631;SDS011;49583;45.590;-122.498;2023-10-19T00:16:01;4.20;;;1.60;;
50631;SDS011;49583;45.590;-122.498;2023-10-19T00:18:39;3.80;;;1.10;;
50631;SDS011;49583;45.590;-122.498;2023-10-19T00:20:57;3.30;;;1.60;;
50631;SDS011;49583;45.590;-122.498;2023-10-19T00:23:18;7.80;;;2.20;;
50631;SDS011;49583;45.590;-122.498;2023-10-19T00:25:43;4.00;;;1.70;;
50631;SDS011;49583;45.590;-122.498;2023-10-19T00:28:02;7.00;;;1.50;;
50631;SDS011;49583;45.590;-122.498;2023-10-19T00:30:36;3.60;;;1.40;;
50631;SDS011;49583;45.590;-122.498;2023-10-19T00:32:54;5.10;;;1.40;;
50631;SDS011;49583;45.590;-122.498;2023-10-19T00:35:15;6.20;;;1.30;;
50631;SDS011;49583;45.590;-122.498;2023-10-19T00:37:51;2.40;;;1.60;;
50631;SDS011;49583;45.590;-122.498;2023-10-19T00:40:27;3.40;;;1.30;;
50631;SDS011;49583;45.590;-122.498;2023-10-19T00:42:44;4.30;;;1.40;;
50631;SDS011;49583;45.590;-122.498;2023-10-19T00:45:07;3.90;;;1.40;;
50631;SDS011;49583;45.590;-122.498;2023-10-19T00:47:21;5.00;;;1.40;;
50631;SDS011;49583;45.590;-122.498;2023-10-19T00:49:41;5.10;;;1.90;;
50631;SDS011;49583;45.590;-122.498;2023-10-19T00:52:14;3.70;;;1.40;;
50631;SDS011;49583;45.590;-122.498;2023-10-19T00:54:51;3.80;;;1.40;;
50631;SDS011;49583;45.590;-122.498;2023-10-19T00:57:12;4.90;;;1.70;;
50631;SDS011;49583;45.590;-122.498;2023-10-19T00:59:47;4.70;;;1.80;;
50631;SDS011;49583;45.590;-122.498;2023-10-19T01:02:21;4.50;;;2.20;;
50631;SDS011;49583;45.590;-122.498;2023-10-19T01:04:58;7.10;;;2.30;;
50631;SDS011;49583;45.590;-122.498;2023-10-19T01:07:33;3.90;;;1.60;;
50631;SDS011;49583;45.590;-122.498;2023-10-19T01:09:58;6.20;;;2.20;;
50631;SDS011;49583;45.590;-122.498;2023-10-19T01:12:22;11.90;;;2.90;;
50631;SDS011;49583;45.590;-122.498;2023-10-19T01:15:05;4.70;;;2.20;;
50631;SDS011;49583;45.590;-122.498;2023-10-19T01:17:41;2.80;;;1.80;;
50631;SDS011;49583;45.590;-122.498;2023-10-19T01:20:10;5.90;;;3.00;;
50631;SDS011;49583;45.590;-122.498;2023-10-19T01:22:54;8.10;;;2.30;;
50631;SDS011;49583;45.590;-122.498;2023-10-19T01:25:44;8.00;;;2.00;;
50631;SDS011;49583;45.590;-122.498;2023-10-19T01:28:27;5.60;;;2.50;;
50631;SDS011;49583;45.590;-122.498;2023-10-19T01:31:05;4.60;;;2.40;;
50631;SDS011;49583;45.590;-122.498;2023-10-19T01:33:22;6.20;;;2.70;;
50631;SDS011;49583;45.590;-122.498;2023-10-19T01:35:56;4.00;;;2.30;;
50631;SDS011;49583;45.590;-122.498;2023-10-19T01:38:32;5.40;;;2.50;;
50631;SDS011;49583;45.590;-122.498;2023-10-19T01:40:48;7.00;;;2.30;;
50631;SDS011;49583;45.590;-122.498;2023-10-19T01:43:22;6.90;;;2.30;;
50631;SDS011;49583;45.590;-122.498;2023-10-19T01:45:51;10.20;;;3.10;;
50631;SDS011;49583;45.590;-122.498;2023-10-19T01:48:13;9.50;;;2.70;;
50631;SDS011;49583;45.590;-122.498;2023-10-19T01:50:47;6.10;;;2.50;;
50631;SDS011;49583;45.590;-122.498;2023-10-19T01:53:20;5.50;;;2.20;;
50631;SDS011;49583;45.590;-122.498;2023-10-19T01:55:54;5.50;;;2.60;;
50631;SDS011;49583;45.590;-122.498;2023-10-19T01:58:28;3.20;;;2.30;;
50631;SDS011;49583;45.590;-122.498;2023-10-19T02:00:47;7.50;;;2.20;;
50631;SDS011;49583;45.590;-122.498;2023-10-19T02:03:13;8.60;;;2.50;;
50631;SDS011;49583;45.590;-122.498;2023-10-19T02:05:48;9.20;;;2.60;;
50631;SDS011;49583;45.590;-122.498;2023-10-19T02:08:08;3.80;;;2.10;;
50631;SDS011;49583;45.590;-122.498;2023-10-19T02:10:41;4.60;;;2.00;;
50631;SDS011;49583;45.590;-122.498;2023-10-19T02:13:01;4.50;;;2.40;;
50631;SDS011;49583;45.590;-122.498;2023-10-19T02:15:26;7.80;;;2.40;;
50631;SDS011;49583;45.590;-122.498;2023-10-19T02:17:59;4.70;;;2.80;;
50631;SDS011;49583;45.590;-122.498;2023-10-19T02:20:15;4.70;;;2.30;;
50631;SDS011;49583;45.590;-122.498;2023-10-19T02:22:46;6.10;;;2.90;;
50631;SDS011;49583;45.590;-122.498;2023-10-19T02:25:03;6.80;;;3.40;;
50631;SDS011;49583;45.590;-122.498;2023-10-19T02:27:18;6.90;;;3.50;;
50631;SDS011;49583;45.590;-122.498;2023-10-19T02:29:59;7.90;;;3.40;;
50631;SDS011;49583;45.590;-122.498;2023-10-19T02:32:33;7.90;;;4.50;;
50631;SDS011;49583;45.590;-122.498;2023-10-19T02:34:46;7.10;;;4.90;;
50631;SDS011;49583;45.590;-122.498;2023-10-19T02:37:10;8.80;;;4.80;;
50631;SDS011;49583;45.590;-122.498;2023-10-19T02:39:44;7.00;;;5.40;;
50631;SDS011;49583;45.590;-122.498;2023-10-19T02:41:57;6.40;;;5.40;;
50631;SDS011;49583;45.590;-122.498;2023-10-19T02:44:11;8.80;;;5.50;;
50631;SDS011;49583;45.590;-122.498;2023-10-19T02:46:33;7.60;;;4.70;;
50631;SDS011;49583;45.590;-122.498;2023-10-19T02:48:52;5.20;;;3.50;;
50631;SDS011;49583;45.590;-122.498;2023-10-19T02:51:16;5.30;;;3.60;;
50631;SDS011;49583;45.590;-122.498;2023-10-19T02:53:40;5.00;;;2.90;;
50631;SDS011;49583;45.590;-122.498;2023-10-19T02:55:53;5.80;;;3.10;;
50631;SDS011;49583;45.590;-122.498;2023-10-19T02:58:21;5.60;;;3.20;;
50631;SDS011;49583;45.590;-122.498;2023-10-19T03:00:46;4.30;;;3.10;;
50631;SDS011;49583;45.590;-122.498;2023-10-19T03:03:00;4.60;;;3.20;;
50631;SDS011;49583;45.590;-122.498;2023-10-19T03:05:24;2.70;;;2.40;;
50631;SDS011;49583;45.590;-122.498;2023-10-19T03:07:48;5.40;;;3.00;;
50631;SDS011;49583;45.590;-122.498;2023-10-19T03:10:01;8.80;;;2.20;;
50631;SDS011;49583;45.590;-122.498;2023-10-19T03:12:15;7.20;;;2.80;;
50631;SDS011;49583;45.590;-122.498;2023-10-19T03:14:31;6.90;;;2.50;;
50631;SDS011;49583;45.590;-122.498;2023-10-19T03:16:48;6.80;;;2.10;;
50631;SDS011;49583;45.590;-122.498;2023-10-19T03:19:02;4.70;;;1.90;;
50631;SDS011;49583;45.590;-122.498;2023-10-19T03:21:15;4.60;;;2.10;;
50631;SDS011;49583;45.590;-122.498;2023-10-19T03:23:47;5.30;;;2.40;;
50631;SDS011;49583;45.590;-122.498;2023-10-19T03:26:00;5.30;;;2.10;;
50631;SDS011;49583;45.590;-122.498;2023-10-19T03:28:35;9.00;;;3.00;;
50631;SDS011;49583;45.590;-122.498;2023-10-19T03:31:08;6.20;;;2.50;;
50631;SDS011;49583;45.590;-122.498;2023-10-19T03:33:27;7.40;;;2.50;;
50631;SDS011;49583;45.590;-122.498;2023-10-19T03:35:43;4.00;;;2.60;;
50631;SDS011;49583;45.590;-122.498;2023-10-19T03:37:56;5.80;;;2.80;;
50631;SDS011;49583;45.590;-122.498;2023-10-19T03:40:25;4.70;;;2.30;;
50631;SDS011;49583;45.590;-122.498;2023-10-19T03:42:43;4.40;;;1.80;;
50631;SDS011;49583;45.590;-122.498;2023-10-19T03:44:56;4.60;;;2.70;;
50631;SDS011;49583;45.590;-122.498;2023-10-19T03:47:36;11.60;;;3.00;;
50631;SDS011;49583;45.590;-122.498;2023-10-19T03:50:02;8.50;;;3.00;;
50631;SDS011;49583;45.590;-122.498;2023-10-19T03:52:24;13.00;;;2.60;;
50631;SDS011;49583;45.590;-122.498;2023-10-19T03:54:38;5.20;;;2.80;;
50631;SDS011;49583;45.590;-122.498;2023-10-19T03:57:04;6.20;;;2.60;;
50631;SDS011;49583;45.590;-122.498;2023-10-19T03:59:30;2.90;;;2.50;;
50631;SDS011;49583;45.590;-122.498;2023-10-19T04:01:46;6.60;;;2.80;;
50631;SDS011;49583;45.590;-122.498;2023-10-19T04:04:02;5.20;;;2.40;;
50631;SDS011;49583;45.590;-122.498;2023-10-19T04:06:17;6.50;;;2.60;;
50631;SDS011;49583;45.590;-122.498;2023-10-19T04:08:30;10.20;;;3.30;;
50631;SDS011;49583;45.590;-122.498;2023-10-19T04:11:05;6.60;;;2.50;;
50631;SDS011;49583;45.590;-122.498;2023-10-19T04:13:30;9.50;;;2.90;;
50631;SDS011;49583;45.590;-122.498;2023-10-19T04:15:54;4.40;;;2.50;;
50631;SDS011;49583;45.590;-122.498;2023-10-19T04:18:10;5.90;;;3.20;;
50631;SDS011;49583;45.590;-122.498;2023-10-19T04:20:24;3.70;;;2.50;;
50631;SDS011;49583;45.590;-122.498;2023-10-19T04:23:09;7.20;;;3.00;;
50631;SDS011;49583;45.590;-122.498;2023-10-19T04:25:26;8.10;;;2.60;;
50631;SDS011;49583;45.590;-122.498;2023-10-19T04:27:44;3.90;;;2.70;;
50631;SDS011;49583;45.590;-122.498;2023-10-19T04:29:57;4.40;;;2.80;;
50631;SDS011;49583;45.590;-122.498;2023-10-19T04:32:11;5.50;;;2.80;;
50631;SDS011;49583;45.590;-122.498;2023-10-19T04:34:33;6.20;;;2.10;;
50631;SDS011;49583;45.590;-122.498;2023-10-19T04:36:52;7.40;;;2.30;;
50631;SDS011;49583;45.590;-122.498;2023-10-19T04:39:08;3.50;;;2.30;;
50631;SDS011;49583;45.590;-122.498;2023-10-19T04:41:41;5.40;;;2.80;;
50631;SDS011;49583;45.590;-122.498;2023-10-19T04:43:56;8.10;;;2.90;;
50631;SDS011;49583;45.590;-122.498;2023-10-19T04:46:09;5.70;;;2.20;;
50631;SDS011;49583;45.590;-122.498;2023-10-19T04:48:23;7.30;;;2.80;;
50631;SDS011;49583;45.590;-122.498;2023-10-19T04:50:39;9.10;;;2.70;;
50631;SDS011;49583;45.590;-122.498;2023-10-19T04:52:52;3.40;;;2.30;;
50631;SDS011;49583;45.590;-122.498;2023-10-19T04:55:05;6.20;;;3.10;;
50631;SDS011;49583;45.590;-122.498;2023-10-19T04:57:18;9.20;;;2.60;;
50631;SDS011;49583;45.590;-122.498;2023-10-19T04:59:31;9.60;;;2.20;;
50631;SDS011;49583;45.590;-122.498;2023-10-19T05:01:44;4.80;;;2.90;;
50631;SDS011;49583;45.590;-122.498;2023-10-19T05:03:58;9.20;;;2.60;;
50631;SDS011;49583;45.590;-122.498;2023-10-19T05:06:11;5.60;;;2.60;;
50631;SDS011;49583;45.590;-122.498;2023-10-19T05:08:27;5.10;;;2.50;;
50631;SDS011;49583;45.590;-122.498;2023-10-19T05:10:43;5.00;;;2.10;;
50631;SDS011;49583;45.590;-122.498;2023-10-19T05:13:00;5.40;;;2.00;;
50631;SDS011;49583;45.590;-122.498;2023-10-19T05:15:17;5.70;;;2.50;;
50631;SDS011;49583;45.590;-122.498;2023-10-19T05:17:33;7.60;;;1.80;;
50631;SDS011;49583;45.590;-122.498;2023-10-19T05:19:46;3.30;;;2.30;;
50631;SDS011;49583;45.590;-122.498;2023-10-19T05:22:19;5.80;;;2.70;;
50631;SDS011;49583;45.590;-122.498;2023-10-19T05:24:32;10.50;;;2.70;;
50631;SDS011;49583;45.590;-122.498;2023-10-19T05:26:49;7.60;;;2.50;;
50631;SDS011;49583;45.590;-122.498;2023-10-19T05:29:12;6.20;;;2.90;;
50631;SDS011;49583;45.590;-122.498;2023-10-19T05:31:25;12.00;;;4.30;;
50631;SDS011;49583;45.590;-122.498;2023-10-19T05:33:44;4.50;;;3.40;;
50631;SDS011;49583;45.590;-122.498;2023-10-19T05:36:08;11.10;;;3.00;;
50631;SDS011;49583;45.590;-122.498;2023-10-19T05:38:22;8.30;;;3.20;;
50631;SDS011;49583;45.590;-122.498;2023-10-19T05:40:35;4.00;;;3.00;;
50631;SDS011;49583;45.590;-122.498;2023-10-19T05:43:10;4.80;;;2.90;;
50631;SDS011;49583;45.590;-122.498;2023-10-19T05:45:37;6.70;;;3.70;;
50631;SDS011;49583;45.590;-122.498;2023-10-19T05:48:01;7.40;;;3.80;;
50631;SDS011;49583;45.590;-122.498;2023-10-19T05:50:16;7.40;;;3.60;;
50631;SDS011;49583;45.590;-122.498;2023-10-19T05:52:32;6.00;;;3.10;;
50631;SDS011;49583;45.590;-122.498;2023-10-19T05:55:05;8.10;;;3.40;;
50631;SDS011;49583;45.590;-122.498;2023-10-19T05:57:40;7.80;;;4.00;;
50631;SDS011;49583;45.590;-122.498;2023-10-19T05:59:56;5.90;;;4.00;;
50631;SDS011;49583;45.590;-122.498;2023-10-19T06:02:17;5.30;;;3.50;;
50631;SDS011;49583;45.590;-122.498;2023-10-19T06:04:59;8.50;;;3.60;;
50631;SDS011;49583;45.590;-122.498;2023-10-19T06:07:23;7.40;;;3.40;;
50631;SDS011;49583;45.590;-122.498;2023-10-19T06:09:45;11.20;;;4.00;;
50631;SDS011;49583;45.590;-122.498;2023-10-19T06:12:10;6.60;;;3.60;;
50631;SDS011;49583;45.590;-122.498;2023-10-19T06:14:23;8.30;;;3.30;;
50631;SDS011;49583;45.590;-122.498;2023-10-19T06:16:58;8.10;;;3.50;;
50631;SDS011;49583;45.590;-122.498;2023-10-19T06:19:15;5.10;;;3.40;;
50631;SDS011;49583;45.590;-122.498;2023-10-19T06:21:37;10.40;;;4.10;;
50631;SDS011;49583;45.590;-122.498;2023-10-19T06:23:51;7.40;;;4.50;;
50631;SDS011;49583;45.590;-122.498;2023-10-19T06:26:14;6.60;;;3.70;;
50631;SDS011;49583;45.590;-122.498;2023-10-19T06:28:47;6.70;;;3.90;;
50631;SDS011;49583;45.590;-122.498;2023-10-19T06:31:08;7.40;;;3.80;;
50631;SDS011;49583;45.590;-122.498;2023-10-19T06:33:33;7.10;;;4.30;;
50631;SDS011;49583;45.590;-122.498;2023-10-19T06:35:52;9.00;;;4.00;;
50631;SDS011;49583;45.590;-122.498;2023-10-19T06:38:27;8.80;;;4.10;;
50631;SDS011;49583;45.590;-122.498;2023-10-19T06:40:43;7.60;;;3.80;;
50631;SDS011;49583;45.590;-122.498;2023-10-19T06:42:56;5.70;;;3.70;;
50631;SDS011;49583;45.590;-122.498;2023-10-19T06:45:16;9.30;;;4.30;;
50631;SDS011;49583;45.590;-122.498;2023-10-19T06:47:41;8.30;;;4.30;;
50631;SDS011;49583;45.590;-122.498;2023-10-19T06:49:57;7.60;;;3.90;;
50631;SDS011;49583;45.590;-122.498;2023-10-19T06:52:32;7.70;;;4.70;;
50631;SDS011;49583;45.590;-122.498;2023-10-19T06:54:56;6.50;;;3.70;;
50631;SDS011;49583;45.590;-122.498;2023-10-19T06:57:12;10.30;;;4.10;;
50631;SDS011;49583;45.590;-122.498;2023-10-19T06:59:29;6.90;;;3.70;;
50631;SDS011;49583;45.590;-122.498;2023-10-19T07:01:45;11.80;;;4.50;;
50631;SDS011;49583;45.590;-122.498;2023-10-19T07:04:18;6.30;;;3.90;;
50631;SDS011;49583;45.590;-122.498;2023-10-19T07:06:34;8.70;;;4.30;;
50631;SDS011;49583;45.590;-122.498;2023-10-19T07:08:57;7.60;;;4.30;;
50631;SDS011;49583;45.590;-122.498;2023-10-19T07:11:15;11.40;;;4.30;;
50631;SDS011;49583;45.590;-122.498;2023-10-19T07:13:47;5.60;;;4.40;;
50631;SDS011;49583;45.590;-122.498;2023-10-19T07:16:01;7.00;;;4.20;;
50631;SDS011;49583;45.590;-122.498;2023-10-19T07:18:17;8.30;;;4.60;;
50631;SDS011;49583;45.590;-122.498;2023-10-19T07:20:29;7.60;;;4.60;;
50631;SDS011;49583;45.590;-122.498;2023-10-19T07:22:54;9.60;;;4.50;;
50631;SDS011;49583;45.590;-122.498;2023-10-19T07:25:25;9.30;;;5.00;;
50631;SDS011;49583;45.590;-122.498;2023-10-19T07:27:42;6.80;;;4.40;;
50631;SDS011;49583;45.590;-122.498;2023-10-19T07:29:55;12.30;;;5.00;;
50631;SDS011;49583;45.590;-122.498;2023-10-19T07:32:11;8.00;;;4.90;;
50631;SDS011;49583;45.590;-122.498;2023-10-19T07:34:28;7.30;;;5.00;;
50631;SDS011;49583;45.590;-122.498;2023-10-19T07:37:03;5.70;;;4.20;;
50631;SDS011;49583;45.590;-122.498;2023-10-19T07:39:24;10.40;;;4.60;;
50631;SDS011;49583;45.590;-122.498;2023-10-19T07:42:01;11.40;;;5.10;;
50631;SDS011;49583;45.590;-122.498;2023-10-19T07:44:17;9.10;;;5.40;;
50631;SDS011;49583;45.590;-122.498;2023-10-19T07:46:30;7.50;;;4.70;;
50631;SDS011;49583;45.590;-122.498;2023-10-19T07:48:47;6.60;;;5.00;;
50631;SDS011;49583;45.590;-122.498;2023-10-19T07:51:12;10.60;;;5.40;;
50631;SDS011;49583;45.590;-122.498;2023-10-19T07:53:47;12.50;;;5.40;;
50631;SDS011;49583;45.590;-122.498;2023-10-19T07:56:00;8.80;;;6.30;;
50631;SDS011;49583;45.590;-122.498;2023-10-19T07:58:16;12.10;;;7.30;;
50631;SDS011;49583;45.590;-122.498;2023-10-19T08:00:49;18.90;;;8.50;;
50631;SDS011;49583;45.590;-122.498;2023-10-19T08:03:06;14.60;;;8.00;;
50631;SDS011;49583;45.590;-122.498;2023-10-19T08:05:31;14.00;;;7.80;;
50631;SDS011;49583;45.590;-122.498;2023-10-19T08:07:51;11.40;;;7.80;;
50631;SDS011;49583;45.590;-122.498;2023-10-19T08:10:25;12.20;;;7.30;;
50631;SDS011;49583;45.590;-122.498;2023-10-19T08:12:41;18.80;;;8.00;;
50631;SDS011;49583;45.590;-122.498;2023-10-19T08:14:55;16.00;;;7.30;;
50631;SDS011;49583;45.590;-122.498;2023-10-19T08:17:08;7.70;;;6.00;;
50631;SDS011;49583;45.590;-122.498;2023-10-19T08:19:24;9.60;;;5.60;;
50631;SDS011;49583;45.590;-122.498;2023-10-19T08:21:38;8.10;;;5.30;;
50631;SDS011;49583;45.590;-122.498;2023-10-19T08:23:52;10.10;;;5.00;;
50631;SDS011;49583;45.590;-122.498;2023-10-19T08:26:08;5.40;;;4.20;;
50631;SDS011;49583;45.590;-122.498;2023-10-19T08:28:32;11.90;;;5.00;;
50631;SDS011;49583;45.590;-122.498;2023-10-19T08:30:48;9.20;;;4.60;;
50631;SDS011;49583;45.590;-122.498;2023-10-19T08:33:11;7.20;;;5.00;;
50631;SDS011;49583;45.590;-122.498;2023-10-19T08:35:34;6.40;;;4.30;;
50631;SDS011;49583;45.590;-122.498;2023-10-19T08:37:50;6.70;;;4.90;;
50631;SDS011;49583;45.590;-122.498;2023-10-19T08:40:15;7.60;;;4.70;;
50631;SDS011;49583;45.590;-122.498;2023-10-19T08:42:32;10.10;;;4.80;;
50631;SDS011;49583;45.590;-122.498;2023-10-19T08:45:07;7.50;;;4.40;;
50631;SDS011;49583;45.590;-122.498;2023-10-19T08:47:22;9.40;;;4.80;;
50631;SDS011;49583;45.590;-122.498;2023-10-19T08:49:38;9.70;;;4.50;;
50631;SDS011;49583;45.590;-122.498;2023-10-19T08:51:51;7.00;;;5.00;;
50631;SDS011;49583;45.590;-122.498;2023-10-19T08:54:15;10.90;;;4.10;;
50631;SDS011;49583;45.590;-122.498;2023-10-19T08:56:31;7.00;;;3.40;;
50631;SDS011;49583;45.590;-122.498;2023-10-19T08:58:47;13.10;;;4.20;;
50631;SDS011;49583;45.590;-122.498;2023-10-19T09:01:11;7.70;;;4.80;;
50631;SDS011;49583;45.590;-122.498;2023-10-19T09:03:27;7.20;;;4.00;;
50631;SDS011;49583;45.590;-122.498;2023-10-19T09:05:43;11.00;;;4.40;;
50631;SDS011;49583;45.590;-122.498;2023-10-19T09:07:56;7.60;;;4.70;;
50631;SDS011;49583;45.590;-122.498;2023-10-19T09:10:29;6.50;;;4.10;;
50631;SDS011;49583;45.590;-122.498;2023-10-19T09:12:48;7.40;;;4.20;;
50631;SDS011;49583;45.590;-122.498;2023-10-19T09:15:32;8.00;;;5.10;;
50631;SDS011;49583;45.590;-122.498;2023-10-19T09:17:45;13.10;;;3.90;;
50631;SDS011;49583;45.590;-122.498;2023-10-19T09:20:22;7.00;;;4.30;;
50631;SDS011;49583;45.590;-122.498;2023-10-19T09:22:37;15.30;;;4.10;;
50631;SDS011;49583;45.590;-122.498;2023-10-19T09:25:03;6.00;;;3.60;;
50631;SDS011;49583;45.590;-122.498;2023-10-19T09:27:21;11.10;;;4.10;;
50631;SDS011;49583;45.590;-122.498;2023-10-19T09:29:43;4.00;;;3.40;;
50631;SDS011;49583;45.590;-122.498;2023-10-19T09:32:17;10.20;;;3.80;;
50631;SDS011;49583;45.590;-122.498;2023-10-19T09:34:37;16.80;;;3.80;;
50631;SDS011;49583;45.590;-122.498;2023-10-19T09:36:51;36.70;;;5.80;;
50631;SDS011;49583;45.590;-122.498;2023-10-19T09:39:15;25.00;;;5.70;;
50631;SDS011;49583;45.590;-122.498;2023-10-19T09:41:48;13.00;;;4.00;;
50631;SDS011;49583;45.590;-122.498;2023-10-19T09:44:03;7.40;;;3.50;;
50631;SDS011;49583;45.590;-122.498;2023-10-19T09:46:23;5.50;;;3.80;;
50631;SDS011;49583;45.590;-122.498;2023-10-19T09:48:49;6.30;;;3.50;;
50631;SDS011;49583;45.590;-122.498;2023-10-19T09:51:06;4.70;;;3.00;;
50631;SDS011;49583;45.590;-122.498;2023-10-19T09:53:25;9.10;;;4.30;;
50631;SDS011;49583;45.590;-122.498;2023-10-19T09:55:44;8.50;;;3.80;;
50631;SDS011;49583;45.590;-122.498;2023-10-19T09:58:23;7.90;;;3.50;;
50631;SDS011;49583;45.590;-122.498;2023-10-19T10:00:44;7.00;;;3.50;;
50631;SDS011;49583;45.590;-122.498;2023-10-19T10:06:04;6.80;;;3.90;;
50631;SDS011;49583;45.590;-122.498;2023-10-19T10:08:31;8.50;;;4.10;;
50631;SDS011;49583;45.590;-122.498;2023-10-19T10:10:55;5.30;;;3.70;;
50631;SDS011;49583;45.590;-122.498;2023-10-19T10:13:41;5.50;;;3.40;;
50631;SDS011;49583;45.590;-122.498;2023-10-19T10:15:59;10.70;;;3.70;;
50631;SDS011;49583;45.590;-122.498;2023-10-19T10:18:25;8.00;;;3.40;;
50631;SDS011;49583;45.590;-122.498;2023-10-19T10:20:55;8.40;;;4.10;;
50631;SDS011;49583;45.590;-122.498;2023-10-19T10:23:21;8.00;;;3.70;;
50631;SDS011;49583;45.590;-122.498;2023-10-19T10:26:00;13.00;;;3.30;;
50631;SDS011;49583;45.590;-122.498;2023-10-19T10:28:26;9.20;;;3.60;;
50631;SDS011;49583;45.590;-122.498;2023-10-19T10:36:03;12.10;;;3.80;;
50631;SDS011;49583;45.590;-122.498;2023-10-19T10:38:35;12.30;;;4.00;;
50631;SDS011;49583;45.590;-122.498;2023-10-19T10:40:52;8.70;;;3.80;;
50631;SDS011;49583;45.590;-122.498;2023-10-19T10:43:19;6.80;;;3.50;;
50631;SDS011;49583;45.590;-122.498;2023-10-19T10:48:52;4.80;;;4.00;;
50631;SDS011;49583;45.590;-122.498;2023-10-19T10:51:05;6.10;;;3.40;;
50631;SDS011;49583;45.590;-122.498;2023-10-19T10:53:30;8.10;;;3.60;;
50631;SDS011;49583;45.590;-122.498;2023-10-19T10:55:43;8.40;;;3.40;;
50631;SDS011;49583;45.590;-122.498;2023-10-19T10:57:56;4.50;;;3.50;;
50631;SDS011;49583;45.590;-122.498;2023-10-19T11:00:09;3.70;;;3.10;;
50631;SDS011;49583;45.590;-122.498;2023-10-19T11:02:25;6.30;;;3.70;;
50631;SDS011;49583;45.590;-122.498;2023-10-19T11:04:42;3.80;;;3.50;;
50631;SDS011;49583;45.590;-122.498;2023-10-19T11:06:55;3.70;;;2.70;;
50631;SDS011;49583;45.590;-122.498;2023-10-19T11:09:11;4.40;;;2.90;;
50631;SDS011;49583;45.590;-122.498;2023-10-19T11:11:25;5.10;;;2.70;;
50631;SDS011;49583;45.590;-122.498;2023-10-19T11:13:38;5.70;;;3.30;;
50631;SDS011;49583;45.590;-122.498;2023-10-19T11:15:52;3.50;;;2.70;;
50631;SDS011;49583;45.590;-122.498;2023-10-19T11:18:05;6.00;;;3.30;;
50631;SDS011;49583;45.590;-122.498;2023-10-19T11:20:25;3.50;;;2.70;;
50631;SDS011;49583;45.590;-122.498;2023-10-19T11:22:38;5.80;;;3.30;;
50631;SDS011;49583;45.590;-122.498;2023-10-19T11:25:02;8.50;;;3.50;;
50631;SDS011;49583;45.590;-122.498;2023-10-19T11:27:30;6.00;;;3.20;;
50631;SDS011;49583;45.590;-122.498;2023-10-19T11:29:55;7.20;;;3.30;;
50631;SDS011;49583;45.590;-122.498;2023-10-19T11:32:12;5.20;;;3.30;;
50631;SDS011;49583;45.590;-122.498;2023-10-19T11:34:24;5.60;;;3.20;;
50631;SDS011;49583;45.590;-122.498;2023-10-19T11:36:38;4.20;;;3.30;;
50631;SDS011;49583;45.590;-122.498;2023-10-19T11:38:51;4.30;;;3.10;;
50631;SDS011;49583;45.590;-122.498;2023-10-19T11:41:04;6.30;;;3.70;;
50631;SDS011;49583;45.590;-122.498;2023-10-19T11:43:17;3.50;;;3.20;;
50631;SDS011;49583;45.590;-122.498;2023-10-19T11:45:30;4.90;;;3.20;;
50631;SDS011;49583;45.590;-122.498;2023-10-19T11:47:43;3.60;;;3.10;;
50631;SDS011;49583;45.590;-122.498;2023-10-19T11:49:55;3.80;;;3.40;;
50631;SDS011;49583;45.590;-122.498;2023-10-19T11:52:08;5.30;;;3.20;;
50631;SDS011;49583;45.590;-122.498;2023-10-19T11:54:21;4.50;;;3.70;;
50631;SDS011;49583;45.590;-122.498;2023-10-19T11:56:33;5.80;;;3.80;;
50631;SDS011;49583;45.590;-122.498;2023-10-19T11:58:46;6.30;;;4.70;;
50631;SDS011;49583;45.590;-122.498;2023-10-19T12:00:59;9.40;;;4.80;;
50631;SDS011;49583;45.590;-122.498;2023-10-19T12:03:12;6.80;;;4.00;;
50631;SDS011;49583;45.590;-122.498;2023-10-19T12:05:26;9.40;;;5.40;;
50631;SDS011;49583;45.590;-122.498;2023-10-19T12:07:39;6.20;;;4.60;;
50631;SDS011;49583;45.590;-122.498;2023-10-19T12:09:53;9.20;;;4.50;;
50631;SDS011;49583;45.590;-122.498;2023-10-19T12:12:05;3.80;;;3.50;;
50631;SDS011;49583;45.590;-122.498;2023-10-19T12:14:18;6.60;;;4.20;;
50631;SDS011;49583;45.590;-122.498;2023-10-19T12:16:31;4.50;;;4.10;;
50631;SDS011;49583;45.590;-122.498;2023-10-19T12:18:44;4.60;;;4.10;;
50631;SDS011;49583;45.590;-122.498;2023-10-19T12:20:57;5.50;;;4.40;;
50631;SDS011;49583;45.590;-122.498;2023-10-19T12:23:12;7.50;;;4.60;;
50631;SDS011;49583;45.590;-122.498;2023-10-19T12:25:24;15.60;;;4.90;;
50631;SDS011;49583;45.590;-122.498;2023-10-19T12:28:00;5.50;;;4.30;;
50631;SDS011;49583;45.590;-122.498;2023-10-19T12:30:13;6.90;;;5.40;;
50631;SDS011;49583;45.590;-122.498;2023-10-19T12:32:28;6.10;;;4.20;;
50631;SDS011;49583;45.590;-122.498;2023-10-19T12:34:43;10.40;;;4.90;;
50631;SDS011;49583;45.590;-122.498;2023-10-19T12:37:00;6.70;;;4.40;;
50631;SDS011;49583;45.590;-122.498;2023-10-19T12:39:14;6.60;;;4.50;;
50631;SDS011;49583;45.590;-122.498;2023-10-19T12:41:39;7.10;;;4.70;;
50631;SDS011;49583;45.590;-122.498;2023-10-19T12:43:52;5.90;;;4.40;;
50631;SDS011;49583;45.590;-122.498;2023-10-19T12:46:08;11.70;;;4.80;;
50631;SDS011;49583;45.590;-122.498;2023-10-19T12:48:21;12.10;;;5.00;;
50631;SDS011;49583;45.590;-122.498;2023-10-19T12:50:40;8.30;;;4.90;;
50631;SDS011;49583;45.590;-122.498;2023-10-19T12:52:53;5.70;;;5.10;;
50631;SDS011;49583;45.590;-122.498;2023-10-19T12:55:07;7.30;;;4.50;;
50631;SDS011;49583;45.590;-122.498;2023-10-19T12:57:19;4.90;;;4.40;;
50631;SDS011;49583;45.590;-122.498;2023-10-19T12:59:32;11.20;;;5.30;;
50631;SDS011;49583;45.590;-122.498;2023-10-19T13:01:46;9.80;;;4.70;;
50631;SDS011;49583;45.590;-122.498;2023-10-19T13:04:03;8.10;;;4.70;;
50631;SDS011;49583;45.590;-122.498;2023-10-19T13:06:25;6.00;;;4.40;;
50631;SDS011;49583;45.590;-122.498;2023-10-19T13:08:39;5.00;;;3.70;;
50631;SDS011;49583;45.590;-122.498;2023-10-19T13:10:53;10.10;;;3.70;;
50631;SDS011;49583;45.590;-122.498;2023-10-19T13:13:19;4.50;;;3.70;;
50631;SDS011;49583;45.590;-122.498;2023-10-19T13:15:32;7.80;;;4.30;;
50631;SDS011;49583;45.590;-122.498;2023-10-19T13:17:46;5.50;;;3.80;;
50631;SDS011;49583;45.590;-122.498;2023-10-19T13:20:00;9.10;;;4.60;;
50631;SDS011;49583;45.590;-122.498;2023-10-19T13:22:23;4.80;;;3.80;;
50631;SDS011;49583;45.590;-122.498;2023-10-19T13:24:41;7.20;;;4.20;;
50631;SDS011;49583;45.590;-122.498;2023-10-19T13:26:53;5.30;;;3.80;;
50631;SDS011;49583;45.590;-122.498;2023-10-19T13:29:06;6.60;;;4.20;;
50631;SDS011;49583;45.590;-122.498;2023-10-19T13:31:19;8.00;;;4.40;;
50631;SDS011;49583;45.590;-122.498;2023-10-19T13:33:35;5.20;;;3.80;;
50631;SDS011;49583;45.590;-122.498;2023-10-19T13:35:47;5.90;;;3.90;;
50631;SDS011;49583;45.590;-122.498;2023-10-19T13:38:00;8.80;;;4.10;;
50631;SDS011;49583;45.590;-122.498;2023-10-19T13:40:13;8.00;;;4.80;;
50631;SDS011;49583;45.590;-122.498;2023-10-19T13:42:27;4.60;;;4.20;;